Time;durP1;ratioP1;P1;durP2;ratioP2;P2;SDS_P1;SDS_P2;PMS_P1;PMS_P2;Temp;Humidity;BMP_temperature;BMP_pressure;BME280_temperature;BME280_humidity;BME280_pressure;Samples;Min_cycle;Max_cycle;Signal;HPM_P1;HPM_P2
2024/04/13 00:01:50;;;;;;;5.20;1.95;;;;;;;19.37;50.56;102700.09;5333004;26;96050;-88
2024/04/13 00:04:15;;;;;;;3.50;1.70;;;;;;;19.35;50.90;102708.00;5303804;26;97772;-88
2024/04/13 00:06:41;;;;;;;3.17;1.98;;;;;;;19.33;50.84;102708.91;5325137;26;94792;-88
2024/04/13 00:09:06;;;;;;;5.03;1.85;;;;;;;19.33;50.79;102698.31;5304659;26;95142;-88
2024/04/13 00:11:31;;;;;;;5.03;1.98;;;;;;;19.32;51.08;102704.47;5292585;26;98410;-88
2024/04/13 00:13:57;;;;;;;2.88;1.27;;;;;;;19.30;50.81;102690.34;5319764;26;95871;-87
2024/04/13 00:16:22;;;;;;;3.53;1.50;;;;;;;19.30;50.88;102695.63;5316003;26;94754;-87
2024/04/13 00:18:48;;;;;;;3.00;1.60;;;;;;;19.30;50.99;102699.16;5297049;26;94938;-87
2024/04/13 00:21:14;;;;;;;4.15;1.58;;;;;;;19.29;50.81;102691.25;5305166;26;97710;-87
2024/04/13 00:23:40;;;;;;;3.40;2.33;;;;;;;19.28;50.89;102692.09;5313267;26;97768;-87
2024/04/13 00:26:06;;;;;;;3.80;1.88;;;;;;;19.28;50.89;102689.47;5301413;26;94885;-87
2024/04/13 00:28:33;;;;;;;3.85;1.55;;;;;;;19.27;50.84;102692.97;5300556;26;94905;-87
2024/04/13 00:30:59;;;;;;;4.50;1.83;;;;;;;19.23;50.86;102692.06;5319297;26;95632;-88
2024/04/13 00:33:25;;;;;;;4.07;1.52;;;;;;;19.21;50.93;102691.19;5328957;26;98628;-86
2024/04/13 00:35:50;;;;;;;4.97;2.05;;;;;;;19.19;51.11;102685.88;5297224;26;94855;-86
2024/04/13 00:38:16;;;;;;;4.47;1.50;;;;;;;19.19;51.13;102675.28;5334387;26;95043;-87
2024/04/13 00:40:42;;;;;;;6.38;2.17;;;;;;;19.17;51.08;102668.25;5297654;26;98374;-87
2024/04/13 00:43:09;;;;;;;5.63;1.77;;;;;;;19.15;51.14;102670.88;5333422;26;95896;-86
2024/04/13 00:45:42;;;;;;;5.20;1.60;;;;;;;19.14;51.08;102668.22;5334522;26;94815;-87
2024/04/13 00:48:14;;;;;;;3.47;1.33;;;;;;;19.09;51.24;102668.19;5301731;26;94957;-87
2024/04/13 00:50:43;;;;;;;4.60;1.90;;;;;;;19.09;51.19;102667.28;5334214;26;98644;-86
2024/04/13 00:53:11;;;;;;;4.15;1.85;;;;;;;19.06;51.40;102668.19;5330571;26;95647;-86
2024/04/13 00:55:39;;;;;;;6.05;1.60;;;;;;;19.05;51.07;102660.22;5295854;26;94843;-86
2024/04/13 00:58:05;;;;;;;3.05;1.73;;;;;;;19.01;51.25;102657.56;5323225;26;94986;-86
2024/04/13 01:00:33;;;;;;;4.30;1.70;;;;;;;18.98;51.12;102654.00;5328383;26;95778;-86
2024/04/13 01:03:00;;;;;;;4.05;2.00;;;;;;;18.96;51.45;102653.13;5329028;26;98001;-87
2024/04/13 01:05:27;;;;;;;3.20;1.88;;;;;;;18.93;51.27;102651.34;5305347;26;94898;-87
2024/04/13 01:07:52;;;;;;;4.82;1.70;;;;;;;18.91;51.45;102661.03;5334502;26;94910;-87
2024/04/13 01:10:21;;;;;;;4.78;2.40;;;;;;;18.90;51.18;102645.16;5333362;26;95877;-87
2024/04/13 01:12:47;;;;;;;2.95;1.73;;;;;;;18.89;51.37;102648.66;5329215;26;95873;-86
2024/04/13 01:15:13;;;;;;;4.10;1.63;;;;;;;18.87;51.51;102648.66;5335865;26;94732;-87
2024/04/13 01:17:38;;;;;;;4.35;2.10;;;;;;;18.86;51.47;102646.00;5304095;26;95059;-86
2024/04/13 01:20:06;;;;;;;3.72;2.00;;;;;;;18.83;51.36;102647.75;5318197;26;98685;-88
2024/04/13 01:22:35;;;;;;;4.70;1.80;;;;;;;18.80;51.44;102645.03;5302858;26;97614;-86
2024/04/13 01:25:00;;;;;;;4.38;2.05;;;;;;;18.78;51.52;102649.44;5298436;26;94913;-87
2024/04/13 01:27:25;;;;;;;3.38;2.20;;;;;;;18.78;51.37;102640.63;5299751;26;94805;-86
2024/04/13 01:29:51;;;;;;;3.50;1.40;;;;;;;18.78;51.43;102637.97;5303978;26;98852;-88
2024/04/13 01:32:17;;;;;;;5.00;2.42;;;;;;;18.76;51.43;102635.31;5332021;26;98128;-87
2024/04/13 01:34:42;;;;;;;5.65;1.50;;;;;;;18.75;51.53;102636.22;5304852;26;94941;-87
2024/04/13 01:37:08;;;;;;;5.57;1.88;;;;;;;18.74;51.40;102637.06;5299505;26;95128;-87
2024/04/13 01:39:34;;;;;;;5.95;1.70;;;;;;;18.71;51.43;102631.75;5295042;26;98685;-87
2024/04/13 01:41:59;;;;;;;4.55;2.15;;;;;;;18.71;51.55;102633.53;5292336;26;94841;-87
2024/04/13 01:44:24;;;;;;;3.60;1.92;;;;;;;18.69;51.25;102633.50;5301422;26;94696;-86
2024/04/13 01:46:50;;;;;;;3.78;2.00;;;;;;;18.67;51.52;102635.25;5288159;26;95024;-87
2024/04/13 01:49:15;;;;;;;4.85;1.50;;;;;;;18.63;51.57;102630.84;5299972;26;98418;-86
2024/04/13 01:51:41;;;;;;;2.60;1.38;;;;;;;18.61;51.41;102643.16;5303248;26;98908;-88
2024/04/13 01:54:06;;;;;;;3.45;1.83;;;;;;;18.59;51.64;102640.50;5330181;26;94881;-87
2024/04/13 01:56:31;;;;;;;3.72;1.50;;;;;;;18.56;51.62;102631.66;5327666;26;94963;-86
2024/04/13 01:58:57;;;;;;;4.32;2.30;;;;;;;18.55;51.62;102651.91;5296504;26;98009;-86
2024/04/13 02:01:22;;;;;;;4.85;1.50;;;;;;;18.53;51.70;102648.38;5296288;26;96601;-86
2024/04/13 02:03:49;;;;;;;5.10;1.90;;;;;;;18.50;51.44;102644.81;5311965;26;94989;-86
2024/04/13 02:06:14;;;;;;;4.68;1.55;;;;;;;18.49;51.73;102640.41;5302882;26;95035;-86
2024/04/13 02:08:40;;;;;;;4.70;1.60;;;;;;;18.46;51.69;102643.91;5292249;26;98310;-86
2024/04/13 02:11:08;;;;;;;2.97;1.50;;;;;;;18.43;51.76;102650.06;5325862;26;95543;-86
2024/04/13 02:13:34;;;;;;;4.22;1.50;;;;;;;18.41;51.92;102648.25;5299858;26;94880;-86
2024/04/13 02:16:00;;;;;;;5.78;2.42;;;;;;;18.40;51.93;102654.44;5329737;26;94933;-85
2024/04/13 02:18:26;;;;;;;4.22;1.60;;;;;;;18.38;51.89;102657.06;5327857;26;95721;-86
2024/04/13 02:20:51;;;;;;;4.75;2.33;;;;;;;18.34;52.12;102655.28;5330854;26;95814;-85
2024/04/13 02:23:17;;;;;;;4.15;1.75;;;;;;;18.31;52.04;102649.06;5301681;26;95195;-86
2024/04/13 02:25:49;;;;;;;3.38;1.80;;;;;;;18.29;51.99;102643.78;5313780;26;94939;-86
2024/04/13 02:28:15;;;;;;;4.57;1.85;;;;;;;18.27;52.02;102645.50;5303225;26;98961;-87
2024/04/13 02:30:41;;;;;;;4.90;2.00;;;;;;;18.25;51.91;102649.88;5303345;26;97709;-88
2024/04/13 02:33:06;;;;;;;4.70;1.77;;;;;;;18.22;52.19;102645.47;5300224;26;94879;-86
2024/04/13 02:35:32;;;;;;;3.80;2.30;;;;;;;18.21;52.08;102642.81;5304389;26;94928;-88
2024/04/13 02:37:57;;;;;;;5.22;2.35;;;;;;;18.18;52.21;102653.31;5295460;26;98907;-86
2024/04/13 02:40:27;;;;;;;5.35;1.90;;;;;;;18.15;51.98;102645.41;5318055;26;98634;-88
2024/04/13 02:42:58;;;;;;;5.07;2.58;;;;;;;18.11;52.29;102657.69;5280043;26;95641;-87
2024/04/13 02:45:24;;;;;;;4.65;1.70;;;;;;;18.08;52.28;102647.97;5333323;26;94840;-87
2024/04/13 02:47:49;;;;;;;4.80;2.30;;;;;;;18.06;52.39;102649.72;5303452;26;98672;-88
2024/04/13 02:50:16;;;;;;;5.07;2.15;;;;;;;18.04;52.41;102647.94;5327638;26;94932;-88
2024/04/13 02:52:41;;;;;;;5.05;2.50;;;;;;;18.02;52.23;102647.91;5329286;26;95102;-87
2024/04/13 02:55:07;;;;;;;4.95;2.08;;;;;;;18.00;52.51;102643.47;5333686;26;94887;-86
2024/04/13 02:57:33;;;;;;;6.90;2.25;;;;;;;18.00;52.54;102646.09;5323999;26;97028;-87
2024/04/13 02:59:58;;;;;;;4.60;1.67;;;;;;;17.95;52.54;102640.81;5302885;26;98235;-86
2024/04/13 03:02:24;;;;;;;4.10;2.38;;;;;;;17.94;52.48;102653.97;5324774;26;94847;-88
2024/04/13 03:04:53;;;;;;;4.78;1.77;;;;;;;17.88;52.73;102655.69;5334847;26;94828;-87
2024/04/13 03:07:19;;;;;;;4.18;1.65;;;;;;;17.87;52.53;102656.53;5318767;26;98716;-87
2024/04/13 03:09:45;;;;;;;2.97;1.60;;;;;;;17.85;52.85;102655.63;5326514;26;95608;-88
2024/04/13 03:12:10;;;;;;;6.05;2.28;;;;;;;17.84;52.65;102652.94;5331175;26;94896;-87
2024/04/13 03:14:36;;;;;;;5.10;2.03;;;;;;;17.82;52.89;102654.69;5331148;26;94937;-87
2024/04/13 03:17:02;;;;;;;6.57;1.73;;;;;;;17.78;52.71;102653.75;5332095;26;95952;-87
2024/04/13 03:19:27;;;;;;;5.50;2.05;;;;;;;17.77;52.82;102657.28;5332020;26;95847;-87
2024/04/13 03:21:53;;;;;;;7.13;2.10;;;;;;;17.74;52.86;102649.31;5332212;26;94959;-86
2024/04/13 03:24:18;;;;;;;3.83;1.92;;;;;;;17.72;52.70;102653.72;5326838;26;94801;-86
2024/04/13 03:26:46;;;;;;;4.65;2.03;;;;;;;17.69;52.82;102646.63;5331887;26;98553;-87
2024/04/13 03:29:12;;;;;;;7.10;2.47;;;;;;;17.68;52.91;102651.88;5326528;26;99001;-87
2024/04/13 03:31:37;;;;;;;6.20;2.00;;;;;;;17.67;53.20;102652.75;5287670;26;94844;-86
2024/04/13 03:34:04;;;;;;;4.78;1.90;;;;;;;17.65;53.01;102650.09;5281825;26;94945;-87
2024/04/13 03:36:30;;;;;;;4.38;1.73;;;;;;;17.65;53.02;102651.88;5319260;26;95356;-87
2024/04/13 03:38:56;;;;;;;5.18;1.80;;;;;;;17.64;52.97;102647.44;5322442;26;95731;-87
2024/04/13 03:41:22;;;;;;;6.03;2.70;;;;;;;17.63;53.03;102643.00;5305412;26;94893;-87
2024/04/13 03:43:47;;;;;;;6.18;2.50;;;;;;;17.63;53.04;102640.38;5306144;26;95355;-87
2024/04/13 03:46:13;;;;;;;5.55;2.10;;;;;;;17.61;53.00;102639.47;5299654;26;98389;-88
2024/04/13 03:48:41;;;;;;;3.83;2.30;;;;;;;17.57;52.87;102637.69;5309849;26;98471;-87
2024/04/13 03:51:10;;;;;;;5.05;1.95;;;;;;;17.53;53.13;102633.25;5305997;26;94922;-87
2024/04/13 03:53:36;;;;;;;4.50;1.95;;;;;;;17.50;52.95;102631.44;5295035;26;94942;-87
2024/04/13 03:56:02;;;;;;;6.97;2.65;;;;;;;17.48;53.15;102633.16;5330144;26;97513;-86
2024/04/13 03:58:28;;;;;;;5.38;2.30;;;;;;;17.45;53.16;102628.75;5297236;26;97867;-87
2024/04/13 04:00:53;;;;;;;4.57;2.20;;;;;;;17.40;53.27;102624.31;5292388;26;94925;-86
2024/04/13 04:03:19;;;;;;;7.35;2.97;;;;;;;17.36;53.25;102625.09;5322854;26;95009;-86
2024/04/13 04:05:48;;;;;;;5.30;2.55;;;;;;;17.30;53.72;102623.28;5326502;26;95686;-86
2024/04/13 04:08:14;;;;;;;5.28;2.55;;;;;;;17.27;53.42;102626.78;5294137;26;99150;-86
2024/04/13 04:10:40;;;;;;;7.35;3.53;;;;;;;17.23;53.57;102619.66;5299851;26;95023;-87
2024/04/13 04:13:06;;;;;;;5.65;2.33;;;;;;;17.20;53.66;102627.56;5331431;26;95059;-86
2024/04/13 04:15:32;;;;;;;5.78;2.35;;;;;;;17.17;53.86;102624.88;5333707;26;96012;-86
2024/04/13 04:17:58;;;;;;;4.35;2.38;;;;;;;17.15;54.04;102629.25;5296017;26;95714;-87
2024/04/13 04:20:24;;;;;;;6.15;2.70;;;;;;;17.12;53.75;102630.06;5330394;26;94935;-87
2024/04/13 04:22:50;;;;;;;7.07;3.28;;;;;;;17.11;53.93;102622.13;5305413;26;94991;-87
2024/04/13 04:25:20;;;;;;;6.15;2.63;;;;;;;17.09;54.21;102623.88;5322645;26;97936;-87
2024/04/13 04:27:45;;;;;;;;;;;;;;;17.04;53.60;102622.91;5292759;26;96487;-87
2024/04/13 04:30:10;;;;;;;6.28;2.63;;;;;;;17.06;53.87;102622.09;5305862;26;94845;-87
2024/04/13 04:32:36;;;;;;;5.65;2.63;;;;;;;17.01;54.04;102625.53;5306052;26;94976;-87
2024/04/13 04:35:01;;;;;;;6.43;2.72;;;;;;;16.99;54.06;102625.50;5324651;26;98391;-87
2024/04/13 04:37:27;;;;;;;6.32;2.33;;;;;;;16.96;54.27;102621.94;5329604;26;95734;-87
2024/04/13 04:39:52;;;;;;;7.53;3.70;;;;;;;16.94;54.39;102621.91;5315593;26;95077;-87
2024/04/13 04:42:18;;;;;;;7.22;2.80;;;;;;;16.89;54.39;102628.88;5290326;26;95050;-87
2024/04/13 04:44:43;;;;;;;8.32;3.28;;;;;;;16.87;54.31;102618.28;5325934;26;95621;-87
2024/04/13 04:47:11;;;;;;;6.45;3.10;;;;;;;16.85;54.41;102621.78;5333030;26;97709;-87
2024/04/13 04:49:37;;;;;;;6.65;3.08;;;;;;;16.85;54.39;102621.78;5329776;26;94857;-87
2024/04/13 04:52:03;;;;;;;7.05;3.28;;;;;;;16.83;54.55;102624.38;5304612;26;95105;-87
2024/04/13 04:54:28;;;;;;;9.00;2.90;;;;;;;16.83;54.54;102619.13;5333638;26;95719;-87
2024/04/13 04:56:54;;;;;;;6.43;2.60;;;;;;;16.81;54.67;102618.19;5330688;26;95601;-87
2024/04/13 04:59:19;;;;;;;5.68;3.30;;;;;;;16.78;54.53;102612.84;5332870;26;94789;-86
2024/04/13 05:01:44;;;;;;;8.38;3.33;;;;;;;16.78;54.90;102615.50;5305745;26;95049;-86
2024/04/13 05:04:10;;;;;;;8.25;3.90;;;;;;;16.79;54.89;102624.28;5329695;26;98597;-87
2024/04/13 05:06:35;;;;;;;7.28;3.55;;;;;;;16.79;55.03;102614.66;5327480;26;98481;-87
2024/04/13 05:09:04;;;;;;;6.82;3.63;;;;;;;16.81;54.97;102612.00;5322225;26;94798;-86
2024/04/13 05:11:30;;;;;;;7.20;3.05;;;;;;;16.81;54.91;102618.19;5331329;26;95437;-87
2024/04/13 05:13:55;;;;;;;7.93;3.40;;;;;;;16.80;55.36;102608.50;5333981;26;98328;-87
2024/04/13 05:16:20;;;;;;;7.80;3.28;;;;;;;16.82;55.13;102611.16;5327615;26;104623;-87
2024/04/13 05:18:46;;;;;;;10.70;3.67;;;;;;;16.83;54.93;102602.41;5334435;26;94782;-87
2024/04/13 05:21:12;;;;;;;6.72;2.90;;;;;;;16.84;55.13;102604.19;5300956;26;94880;-87
2024/04/13 05:23:37;;;;;;;6.43;2.90;;;;;;;16.85;55.28;102611.25;5329194;26;98377;-87
2024/04/13 05:26:03;;;;;;;9.07;3.45;;;;;;;16.83;55.34;102605.94;5334565;26;97755;-87
2024/04/13 05:28:28;;;;;;;6.85;3.65;;;;;;;16.83;55.31;102600.69;5324665;26;94947;-87
2024/04/13 05:30:56;;;;;;;8.35;3.50;;;;;;;16.83;55.01;102602.41;5304607;26;94946;-87
2024/04/13 05:33:23;;;;;;;6.13;3.40;;;;;;;16.83;55.45;102600.69;5321970;26;95824;-87
2024/04/13 05:35:49;;;;;;;7.78;3.80;;;;;;;16.86;55.57;102600.72;5327952;26;95854;-87
2024/04/13 05:38:14;;;;;;;5.82;2.70;;;;;;;16.90;55.39;102602.53;5326385;26;94768;-86
2024/04/13 05:40:40;;;;;;;7.15;3.63;;;;;;;16.92;55.14;102598.16;5322735;26;94989;-86
2024/04/13 05:43:06;;;;;;;6.18;2.78;;;;;;;16.98;55.24;102604.38;5304139;26;98824;-85
2024/04/13 05:45:35;;;;;;;7.85;2.88;;;;;;;16.99;55.55;102591.25;5286270;26;98607;-87
2024/04/13 05:48:01;;;;;;;8.73;3.22;;;;;;;17.05;55.40;102600.97;5304029;26;94984;-86
2024/04/13 05:50:27;;;;;;;7.13;3.33;;;;;;;17.09;55.21;102594.88;5332691;26;94843;-87
2024/04/13 05:52:52;;;;;;;5.30;3.42;;;;;;;17.12;55.60;102605.47;5295820;26;98431;-86
2024/04/13 05:55:18;;;;;;;5.82;3.25;;;;;;;17.16;55.48;102604.63;5324970;26;98041;-87
2024/04/13 05:57:43;;;;;;;6.93;3.75;;;;;;;17.20;55.48;102597.66;5331008;26;94853;-87
2024/04/13 06:00:10;;;;;;;6.93;3.47;;;;;;;17.24;55.59;102607.38;5331782;26;94929;-87
2024/04/13 06:02:35;;;;;;;6.43;3.03;;;;;;;17.30;55.58;102607.44;5334060;26;97946;-87
2024/04/13 06:05:01;;;;;;;6.85;2.88;;;;;;;17.38;55.93;102610.19;5302188;26;98788;-87
2024/04/13 06:07:26;;;;;;;5.43;2.60;;;;;;;17.44;55.61;102597.09;5334004;26;94817;-87
2024/04/13 06:09:51;;;;;;;7.05;2.95;;;;;;;17.51;55.64;102604.19;5331642;26;94894;-87
2024/04/13 06:12:17;;;;;;;5.50;3.05;;;;;;;17.56;55.57;102602.50;5329956;26;95760;-87
2024/04/13 06:14:47;;;;;;;5.40;3.15;;;;;;;17.62;55.41;102609.59;5333207;26;97932;-87
2024/04/13 06:17:12;;;;;;;6.38;3.10;;;;;;;17.68;55.37;102607.00;5333023;26;94844;-86
2024/04/13 06:19:40;;;;;;;7.65;2.70;;;;;;;17.74;55.70;102599.19;5303495;26;95153;-87
2024/04/13 06:22:05;;;;;;;8.30;3.25;;;;;;;17.81;55.48;102598.38;5297945;26;98000;-87
2024/04/13 06:24:30;;;;;;;5.85;2.97;;;;;;;17.90;55.61;102602.91;5330609;26;95768;-87
2024/04/13 06:26:56;;;;;;;6.20;2.63;;;;;;;17.97;55.62;102596.81;5288331;26;94859;-87
2024/04/13 06:29:21;;;;;;;5.47;3.03;;;;;;;18.03;55.77;102598.63;5296072;26;95110;-86
2024/04/13 06:31:46;;;;;;;6.15;2.60;;;;;;;18.14;55.58;102585.50;5298888;26;95754;-87
2024/04/13 06:34:12;;;;;;;6.40;2.63;;;;;;;18.25;55.57;102581.19;5323406;26;108338;-86
2024/04/13 06:36:38;;;;;;;4.72;2.78;;;;;;;18.37;55.53;102589.22;5294048;26;95210;-87
2024/04/13 06:39:03;;;;;;;7.90;2.92;;;;;;;18.51;55.86;102594.63;5330957;26;94958;-86
2024/04/13 06:41:29;;;;;;;5.75;2.53;;;;;;;18.68;55.45;102596.50;5331327;26;95584;-88
2024/04/13 06:43:55;;;;;;;8.88;2.40;;;;;;;18.79;55.35;102594.81;5333792;26;95590;-87
2024/04/13 06:46:21;;;;;;;7.10;2.53;;;;;;;18.90;55.01;102592.28;5292629;26;94932;-88
2024/04/13 06:48:46;;;;;;;4.35;2.20;;;;;;;18.97;54.54;102591.44;5303613;26;95038;-87
2024/04/13 06:51:12;;;;;;;5.65;3.03;;;;;;;19.03;54.48;102594.09;5332975;26;95882;-88
2024/04/13 06:53:39;;;;;;;7.28;3.25;;;;;;;19.09;54.29;102591.50;5327475;26;98351;-87
2024/04/13 06:56:05;;;;;;;7.13;3.05;;;;;;;19.14;54.41;102587.09;5309588;26;94899;-87
2024/04/13 06:58:30;;;;;;;6.72;3.50;;;;;;;19.21;54.20;102586.28;5326571;26;94986;-87
2024/04/13 07:00:56;;;;;;;5.72;2.60;;;;;;;19.27;54.05;102587.16;5305131;26;98397;-87
2024/04/13 07:03:22;;;;;;;7.85;2.63;;;;;;;19.31;53.93;102581.00;5315000;26;98546;-88
2024/04/13 07:05:57;;;;;;;6.18;2.88;;;;;;;19.32;53.72;102577.47;5335553;26;94832;-88
2024/04/13 07:08:23;;;;;;;8.48;2.47;;;;;;;19.35;53.87;102581.00;5320026;26;94891;-87
2024/04/13 07:10:50;;;;;;;5.20;2.58;;;;;;;19.39;53.95;102571.31;5323605;26;96050;-87
2024/04/13 07:13:16;;;;;;;6.15;3.25;;;;;;;19.45;53.83;102571.34;5300880;26;98541;-87
2024/04/13 07:15:41;;;;;;;5.65;3.00;;;;;;;19.49;53.64;102572.25;5305002;26;94948;-87
2024/04/13 07:18:08;;;;;;;7.45;3.53;;;;;;;19.55;53.68;102561.66;5330294;26;95035;-88
2024/04/13 07:20:34;;;;;;;5.05;2.63;;;;;;;19.58;53.67;102553.75;5304264;26;98457;-87
2024/04/13 07:22:59;;;;;;;4.53;2.75;;;;;;;19.63;53.71;102561.69;5302923;26;98720;-87
2024/04/13 07:25:27;;;;;;;7.05;2.83;;;;;;;19.71;53.52;102557.28;5330824;26;94912;-88
2024/04/13 07:27:53;;;;;;;7.50;3.20;;;;;;;19.78;53.18;102561.75;5305422;26;94922;-89
2024/04/13 07:30:19;;;;;;;5.80;3.33;;;;;;;19.81;53.24;102567.06;5320346;26;95934;-89
2024/04/13 07:32:44;;;;;;;6.35;2.72;;;;;;;19.85;53.39;102560.00;5339295;26;94837;-89
2024/04/13 07:35:09;;;;;;;5.43;2.88;;;;;;;19.90;53.91;102561.75;5337889;26;94888;-88
2024/04/13 07:37:35;;;;;;;5.15;2.60;;;;;;;19.97;53.59;102544.13;5339597;26;95015;-88
2024/04/13 07:40:00;;;;;;;6.18;3.40;;;;;;;20.03;53.49;102549.41;5335730;26;97617;-89
2024/04/13 07:42:26;;;;;;;7.03;2.83;;;;;;;20.08;53.17;102546.78;5304928;26;97568;-89
2024/04/13 07:44:52;;;;;;;6.65;3.63;;;;;;;20.15;53.11;102543.22;5308568;26;94939;-87
2024/04/13 07:47:18;;;;;;;5.82;2.75;;;;;;;20.19;52.83;102544.13;5305003;26;95093;-85
2024/04/13 07:49:43;;;;;;;8.07;3.47;;;;;;;20.20;52.96;102546.78;5328351;26;97959;-86
2024/04/13 07:52:09;;;;;;;5.38;2.80;;;;;;;20.23;52.84;102544.13;5335490;26;95479;-86
2024/04/13 07:54:34;;;;;;;6.97;3.88;;;;;;;20.26;52.85;102543.22;5300078;26;94991;-84
2024/04/13 07:57:00;;;;;;;6.20;2.85;;;;;;;20.29;52.57;102540.59;5331102;26;95058;-83
2024/04/13 07:59:27;;;;;;;9.30;2.60;;;;;;;20.32;52.91;102543.22;5325090;26;95754;-85
2024/04/13 08:01:53;;;;;;;6.47;2.85;;;;;;;20.37;52.53;102543.22;5304045;26;97889;-88
2024/04/13 08:04:19;;;;;;;5.88;3.38;;;;;;;20.41;52.37;102534.38;5309846;26;94870;-85
2024/04/13 08:06:45;;;;;;;5.93;3.45;;;;;;;20.45;52.60;102533.50;5314708;26;95137;-85
2024/04/13 08:09:10;;;;;;;5.95;3.63;;;;;;;20.52;52.54;102543.19;5322115;26;94897;-86
2024/04/13 08:11:36;;;;;;;6.68;3.80;;;;;;;20.58;52.64;102540.53;5329884;26;94892;-85
2024/04/13 08:14:02;;;;;;;5.97;3.58;;;;;;;20.68;53.11;102534.34;5330890;26;96007;-87
2024/04/13 08:16:27;;;;;;;8.52;3.75;;;;;;;20.86;53.21;102538.72;5326927;26;94847;-86
2024/04/13 08:18:53;;;;;;;5.65;3.70;;;;;;;21.02;52.84;102533.38;5322958;26;96020;-86
2024/04/13 08:21:18;;;;;;;6.68;3.47;;;;;;;21.19;52.61;102526.19;5337974;26;95840;-85
2024/04/13 08:23:44;;;;;;;9.20;3.30;;;;;;;21.36;52.51;102520.81;5304942;26;94680;-85
2024/04/13 08:26:09;;;;;;;6.97;2.90;;;;;;;21.56;52.36;102515.38;5304164;26;94910;-86
2024/04/13 08:28:35;;;;;;;8.63;3.65;;;;;;;21.74;51.82;102509.06;5309959;26;97312;-85
2024/04/13 08:31:04;;;;;;;6.38;3.85;;;;;;;21.93;51.82;102501.84;5309392;26;97680;-86
2024/04/13 08:33:30;;;;;;;6.72;2.90;;;;;;;22.18;52.06;102513.13;5313859;26;94895;-86
2024/04/13 08:36:06;;;;;;;6.25;3.08;;;;;;;22.48;51.67;102513.75;5329674;26;95004;-85
2024/04/13 08:38:32;;;;;;;6.53;3.45;;;;;;;22.79;51.43;102505.41;5324400;26;95917;-88
2024/04/13 08:41:03;;;;;;;6.10;2.80;;;;;;;22.98;50.14;102503.41;5335361;26;97942;-88
2024/04/13 08:43:28;;;;;;;6.32;3.50;;;;;;;23.06;49.92;102495.34;5334516;26;94931;-88
2024/04/13 08:45:55;;;;;;;7.22;3.10;;;;;;;23.15;49.94;102496.09;5330261;26;95019;-87
2024/04/13 08:48:21;;;;;;;7.13;3.10;;;;;;;23.23;49.15;102487.16;5303902;26;97570;-87
2024/04/13 08:50:49;;;;;;;5.72;3.38;;;;;;;23.25;49.50;102486.22;5338032;26;97688;-84
2024/04/13 08:53:17;;;;;;;8.30;3.67;;;;;;;23.32;48.92;102479.00;5339097;26;95097;-86
2024/04/13 08:55:44;;;;;;;6.47;3.03;;;;;;;23.41;48.93;102480.66;5343623;26;94973;-84
2024/04/13 08:58:14;;;;;;;8.13;3.28;;;;;;;23.52;48.61;102487.56;5330914;26;95907;-85
2024/04/13 09:00:42;;;;;;;6.55;2.92;;;;;;;23.65;48.44;102482.03;5300037;26;97909;-86
2024/04/13 09:03:10;;;;;;;5.32;3.40;;;;;;;23.74;48.19;102485.44;5332426;26;94759;-86
2024/04/13 09:05:37;;;;;;;6.05;3.90;;;;;;;23.83;48.02;102479.13;5334269;26;95101;-87
2024/04/13 09:08:04;;;;;;;7.30;3.85;;;;;;;23.96;48.20;102477.13;5331260;26;95918;-85
2024/04/13 09:10:30;;;;;;;7.35;3.72;;;;;;;24.11;47.77;102471.50;5332840;26;95836;-85
2024/04/13 09:12:58;;;;;;;6.38;3.25;;;;;;;24.26;48.16;102466.78;5336511;26;94724;-87
2024/04/13 09:15:24;;;;;;;6.40;2.97;;;;;;;24.41;47.87;102463.81;5308247;26;94943;-87
2024/04/13 09:17:52;;;;;;;7.70;3.17;;;;;;;24.57;47.32;102464.44;5337210;26;95594;-86
2024/04/13 09:20:20;;;;;;;5.95;3.65;;;;;;;24.70;46.98;102465.91;5303461;26;97715;-88
2024/04/13 09:22:46;;;;;;;12.70;4.78;;;;;;;24.80;46.41;102452.41;5339749;26;94662;-88
2024/04/13 09:25:21;;;;;;;8.80;4.25;;;;;;;24.83;46.11;102445.22;5309628;26;95007;-89
2024/04/13 09:28:03;;;;;;;7.35;3.90;;;;;;;24.85;46.08;102446.06;5334175;26;96862;-90
2024/04/13 09:30:29;;;;;;;7.13;3.75;;;;;;;24.88;45.74;102432.66;5305097;26;98377;-84
2024/04/13 09:33:03;;;;;;;;;;;;;;;24.87;46.44;102432.69;5336319;26;94900;-85
2024/04/13 09:35:28;;;;;;;8.45;4.28;;;;;;;24.87;45.08;102417.53;5301612;26;94986;-86
2024/04/13 09:37:58;;;;;;;7.43;4.15;;;;;;;24.80;45.42;102423.91;5332006;26;98584;-92
2024/04/13 09:40:24;;;;;;;6.40;3.40;;;;;;;24.80;45.58;102429.25;5339787;26;98581;-90
2024/04/13 09:42:49;;;;;;;8.68;4.70;;;;;;;24.87;46.08;102430.00;5318379;26;94844;-90
2024/04/13 09:45:15;;;;;;;6.50;3.67;;;;;;;24.97;45.53;102430.66;5303785;26;95059;-91
2024/04/13 09:47:41;;;;;;;10.65;4.43;;;;;;;25.01;44.74;102422.56;5300422;26;97055;-90
2024/04/13 09:50:06;;;;;;;7.55;3.95;;;;;;;25.05;44.74;102413.56;5337530;26;98638;-91
2024/04/13 09:52:33;;;;;;;8.00;4.10;;;;;;;25.06;44.83;102422.44;5301390;26;95005;-89
2024/04/13 09:55:00;;;;;;;11.38;5.05;;;;;;;25.01;44.62;102422.56;5326671;26;95595;-86
2024/04/13 09:57:26;;;;;;;8.10;4.15;;;;;;;24.97;44.33;102410.19;5321795;26;98151;-85
2024/04/13 09:59:54;;;;;;;10.07;4.90;;;;;;;24.89;44.48;102412.16;5326443;26;95798;-84
2024/04/13 10:02:20;;;;;;;9.85;5.15;;;;;;;24.85;44.45;102406.03;5327758;26;94829;-83
2024/04/13 10:04:46;;;;;;;25.63;4.50;;;;;;;24.84;44.35;102408.72;5330262;26;94993;-85
2024/04/13 10:07:12;;;;;;;10.70;4.82;;;;;;;24.85;44.86;102407.81;5300090;26;98211;-85
2024/04/13 10:09:40;;;;;;;8.85;5.00;;;;;;;24.87;45.03;102417.53;5300124;26;97735;-84
2024/04/13 10:12:09;;;;;;;10.60;6.75;;;;;;;24.92;44.55;102411.19;5330517;26;94885;-85
2024/04/13 10:14:41;;;;;;;14.90;6.50;;;;;;;24.97;44.68;102402.16;5298014;26;95395;-83
2024/04/13 10:17:09;;;;;;;10.55;5.55;;;;;;;24.99;44.54;102395.03;5299061;26;96850;-83
2024/04/13 10:19:34;;;;;;;12.30;6.97;;;;;;;24.99;44.68;102397.69;5323241;26;97992;-82
2024/04/13 10:22:01;;;;;;;17.23;7.70;;;;;;;25.01;45.12;102397.63;5292154;26;95324;-83
2024/04/13 10:24:30;;;;;;;12.57;6.28;;;;;;;25.06;45.02;102393.97;5296422;26;95055;-82
2024/04/13 10:27:06;;;;;;;12.45;6.75;;;;;;;25.09;44.69;102388.53;5333727;26;95687;-86
2024/04/13 10:29:37;;;;;;;15.10;7.88;;;;;;;25.12;44.46;102384.94;5317974;26;97954;-84
2024/04/13 10:32:29;;;;;;;13.48;7.55;;;;;;;25.01;44.79;102381.63;5295051;26;94805;-84
2024/04/13 10:34:58;;;;;;;12.25;7.95;;;;;;;25.05;45.20;102375.31;5334867;26;95183;-84
2024/04/13 10:37:24;;;;;;;13.07;7.47;;;;;;;25.11;45.35;102369.81;5306495;26;95746;-85
2024/04/13 10:39:57;;;;;;;14.40;9.05;;;;;;;25.21;45.62;102371.34;5344500;26;95860;-85
2024/04/13 10:42:36;;;;;;;14.57;7.45;;;;;;;25.32;45.14;102365.78;5329432;26;94805;-85
2024/04/13 10:45:09;;;;;;;16.08;8.88;;;;;;;25.38;44.95;102370.09;5343898;26;95127;-84
2024/04/13 10:47:37;;;;;;;15.65;8.18;;;;;;;25.40;45.13;102363.81;5307843;26;97730;-85
2024/04/13 10:50:03;;;;;;;13.63;7.20;;;;;;;25.48;45.22;102362.72;5296744;26;95562;-84
2024/04/13 10:52:29;;;;;;;16.17;8.13;;;;;;;25.57;45.12;102355.34;5307249;26;95022;-84
2024/04/13 10:54:56;;;;;;;14.98;8.77;;;;;;;25.64;44.98;102351.56;5312829;26;94988;-83
2024/04/13 10:57:21;;;;;;;13.80;8.70;;;;;;;25.67;44.63;102350.63;5321673;26;95565;-83
2024/04/13 10:59:47;;;;;;;12.93;8.30;;;;;;;25.69;44.83;102350.59;5323858;26;98720;-83
2024/04/13 11:02:12;;;;;;;15.40;8.77;;;;;;;25.73;44.74;102344.25;5346204;26;94939;-83
2024/04/13 11:04:44;;;;;;;14.77;8.15;;;;;;;25.74;44.78;102337.97;5334892;26;94922;-82
2024/04/13 11:07:14;;;;;;;13.10;7.13;;;;;;;25.78;45.00;102329.81;5349889;26;96154;-84
2024/04/13 11:09:41;;;;;;;15.20;9.00;;;;;;;25.86;44.70;102315.38;5320981;26;94873;-84
2024/04/13 11:12:16;;;;;;;18.52;8.63;;;;;;;25.98;44.74;102329.28;5343548;26;95006;-85
2024/04/13 11:14:41;;;;;;;13.77;7.38;;;;;;;26.05;44.46;102308.59;5341601;26;94867;-83
2024/04/13 11:17:09;;;;;;;14.25;7.43;;;;;;;26.10;44.45;102303.13;5332099;26;95823;-82
2024/04/13 11:19:34;;;;;;;13.45;7.05;;;;;;;26.19;44.33;102293.03;5366672;26;98634;-84
2024/04/13 11:22:01;;;;;;;12.27;6.03;;;;;;;26.35;44.39;102300.59;5309904;26;94889;-84